createdAt,value
2017-09-29T00:00:29.667Z,15.20
2017-09-29T00:01:33.003Z,15.20
2017-09-29T00:02:35.939Z,15.10
2017-09-29T00:03:39.104Z,15.10
2017-09-29T00:04:42.126Z,15.00
2017-09-29T00:05:47.580Z,15.00
2017-09-29T00:06:51.984Z,15.00
2017-09-29T00:07:56.979Z,14.90
2017-09-29T00:08:59.906Z,14.90
2017-09-29T00:10:03.562Z,15.00
2017-09-29T00:11:06.823Z,15.00
2017-09-29T00:12:11.317Z,15.00
2017-09-29T00:13:14.395Z,15.00
2017-09-29T00:14:18.539Z,14.90
2017-09-29T00:15:21.573Z,14.90
2017-09-29T00:16:24.538Z,14.90
2017-09-29T00:17:29.519Z,14.90
2017-09-29T00:18:38.337Z,14.90
2017-09-29T00:19:41.814Z,14.80
2017-09-29T00:20:46.335Z,14.80
2017-09-29T00:21:49.601Z,14.80
2017-09-29T00:22:52.516Z,14.80
2017-09-29T00:23:55.013Z,14.80
2017-09-29T00:24:57.725Z,14.80
2017-09-29T00:26:01.260Z,14.70
2017-09-29T00:27:04.010Z,14.70
2017-09-29T00:28:06.526Z,14.80
2017-09-29T00:29:09.322Z,14.80
2017-09-29T00:30:12.673Z,14.80
2017-09-29T00:31:15.316Z,14.80
2017-09-29T00:32:18.410Z,14.90
2017-09-29T00:33:21.192Z,14.90
2017-09-29T00:34:23.781Z,14.90
2017-09-29T00:35:26.722Z,14.90
2017-09-29T00:36:29.385Z,14.90
2017-09-29T00:37:31.907Z,14.90
2017-09-29T00:38:34.406Z,14.90
2017-09-29T00:39:37.917Z,15.00
2017-09-29T00:40:40.672Z,15.00
2017-09-29T00:41:43.181Z,15.00
2017-09-29T00:42:45.779Z,15.00
2017-09-29T00:43:49.641Z,15.10
2017-09-29T00:44:52.161Z,15.10
2017-09-29T00:45:54.841Z,15.10
2017-09-29T00:46:57.516Z,15.10
2017-09-29T00:48:01.234Z,15.10
2017-09-29T00:49:03.883Z,15.10
2017-09-29T00:50:06.439Z,15.10
2017-09-29T00:51:09.710Z,15.10
2017-09-29T00:52:13.346Z,15.10
2017-09-29T00:53:17.656Z,15.10
2017-09-29T00:54:20.641Z,15.10
2017-09-29T00:55:23.380Z,15.10
2017-09-29T00:56:27.120Z,15.10
2017-09-29T00:57:29.702Z,15.10
2017-09-29T00:58:32.415Z,15.10
2017-09-29T00:59:34.931Z,15.10
2017-09-29T01:00:37.712Z,15.10
2017-09-29T01:01:40.224Z,15.00
2017-09-29T01:02:43.091Z,15.00
2017-09-29T01:03:45.577Z,15.00
2017-09-29T01:04:48.388Z,14.90
2017-09-29T01:05:50.867Z,14.90
2017-09-29T01:06:54.361Z,14.90
2017-09-29T01:07:57.627Z,14.90
2017-09-29T01:09:00.275Z,14.90
2017-09-29T01:10:02.814Z,15.00
2017-09-29T01:11:05.672Z,15.00
2017-09-29T01:12:08.149Z,15.00
2017-09-29T01:13:10.951Z,15.00
2017-09-29T01:14:13.441Z,15.00
2017-09-29T01:15:15.998Z,15.00
2017-09-29T01:16:18.616Z,15.10
2017-09-29T01:17:21.329Z,15.00
2017-09-29T01:18:23.926Z,15.10
2017-09-29T01:19:27.299Z,15.10
2017-09-29T01:20:29.795Z,15.10
2017-09-29T01:21:32.364Z,15.10
2017-09-29T01:22:34.866Z,15.10
2017-09-29T01:23:37.775Z,15.10
2017-09-29T01:24:41.078Z,15.10
2017-09-29T01:25:44.527Z,15.10
2017-09-29T01:26:47.146Z,15.10
2017-09-29T01:27:50.837Z,15.10
2017-09-29T01:28:53.537Z,15.20
2017-09-29T01:29:56.109Z,15.20
2017-09-29T01:30:58.696Z,15.20
2017-09-29T01:32:01.469Z,15.20
2017-09-29T01:33:03.979Z,15.20
2017-09-29T01:34:06.654Z,15.20
2017-09-29T01:35:09.136Z,15.20
2017-09-29T01:36:11.879Z,15.20
2017-09-29T01:37:14.365Z,15.20
2017-09-29T01:38:17.226Z,15.20
2017-09-29T01:39:19.790Z,15.20
2017-09-29T01:40:23.615Z,15.20
2017-09-29T01:41:26.258Z,15.30
2017-09-29T01:42:28.771Z,15.20
2017-09-29T01:43:31.288Z,15.30
2017-09-29T01:44:33.853Z,15.30
2017-09-29T01:45:36.419Z,15.40
2017-09-29T01:46:40.051Z,15.40
2017-09-29T01:47:42.804Z,15.40
2017-09-29T01:48:45.426Z,15.40
2017-09-29T01:49:48.736Z,15.50
2017-09-29T01:50:51.815Z,15.40
2017-09-29T01:51:54.383Z,15.40
2017-09-29T01:52:56.899Z,15.40
2017-09-29T01:53:59.821Z,15.40
2017-09-29T01:55:03.503Z,15.50
2017-09-29T01:56:06.222Z,15.50
2017-09-29T01:57:09.558Z,15.50
2017-09-29T01:58:12.246Z,15.60
2017-09-29T01:59:14.817Z,15.60
2017-09-29T02:00:17.544Z,15.60
2017-09-29T02:01:20.059Z,15.60
2017-09-29T02:02:23.193Z,15.60
2017-09-29T02:03:25.797Z,15.60
2017-09-29T02:04:28.504Z,15.60
2017-09-29T02:05:31.040Z,15.60
2017-09-29T02:06:33.532Z,15.60
2017-09-29T02:07:36.027Z,15.60
2017-09-29T02:08:38.588Z,15.60
2017-09-29T02:09:41.095Z,15.60
2017-09-29T02:10:43.596Z,15.60
2017-09-29T02:11:46.122Z,15.60
2017-09-29T02:12:48.620Z,15.60
2017-09-29T02:13:51.159Z,15.60
2017-09-29T02:14:53.733Z,15.60
2017-09-29T02:15:56.349Z,15.60
2017-09-29T02:16:59.062Z,15.60
2017-09-29T02:18:01.631Z,15.60
2017-09-29T02:19:05.292Z,15.60
2017-09-29T02:20:07.801Z,15.70
2017-09-29T02:21:12.523Z,15.70
2017-09-29T02:22:15.103Z,15.70
2017-09-29T02:23:17.839Z,15.70
2017-09-29T02:24:20.324Z,15.70
2017-09-29T02:25:23.139Z,15.70
2017-09-29T02:26:25.682Z,15.80
2017-09-29T02:27:30.366Z,15.80
2017-09-29T02:28:33.855Z,15.80
2017-09-29T02:29:37.476Z,15.80
2017-09-29T02:30:40.013Z,15.80
2017-09-29T02:31:42.809Z,15.80
2017-09-29T02:32:45.288Z,15.80
2017-09-29T02:33:48.294Z,15.90
2017-09-29T02:34:50.901Z,16.00
2017-09-29T02:35:53.553Z,16.00
2017-09-29T02:36:56.955Z,15.90
2017-09-29T02:37:59.641Z,15.90
2017-09-29T02:39:02.146Z,16.00
2017-09-29T02:40:04.954Z,15.90
2017-09-29T02:41:07.436Z,16.00
2017-09-29T02:42:10.152Z,15.90
2017-09-29T02:43:12.630Z,15.90
2017-09-29T02:44:16.107Z,15.90
2017-09-29T02:45:18.626Z,15.90
2017-09-29T02:46:24.369Z,15.90
2017-09-29T02:47:27.170Z,15.90
2017-09-29T02:48:30.785Z,15.90
2017-09-29T02:49:37.959Z,15.90
2017-09-29T02:50:40.778Z,15.90
2017-09-29T02:51:43.337Z,15.90
2017-09-29T02:52:46.073Z,16.00
2017-09-29T02:53:48.582Z,15.90
2017-09-29T02:54:51.399Z,15.90
2017-09-29T02:55:53.890Z,15.90
2017-09-29T02:57:01.021Z,15.90
2017-09-29T02:58:05.221Z,15.90
2017-09-29T02:59:10.551Z,16.00
2017-09-29T03:00:14.851Z,16.00
2017-09-29T03:01:19.438Z,15.90
2017-09-29T03:02:23.371Z,16.00
2017-09-29T03:03:27.758Z,16.00
2017-09-29T03:04:33.245Z,16.00
2017-09-29T03:05:36.927Z,16.00
2017-09-29T03:06:39.422Z,16.00
2017-09-29T03:07:42.801Z,16.00
2017-09-29T03:08:46.070Z,16.00
2017-09-29T03:09:48.790Z,16.00
2017-09-29T03:10:51.357Z,16.00
2017-09-29T03:11:54.110Z,16.00
2017-09-29T03:12:57.409Z,15.90
2017-09-29T03:14:00.027Z,15.90
2017-09-29T03:15:02.515Z,15.90
2017-09-29T03:16:06.954Z,15.90
2017-09-29T03:17:09.461Z,15.90
2017-09-29T03:18:12.217Z,15.90
2017-09-29T03:19:14.707Z,15.90
2017-09-29T03:20:17.327Z,15.90
2017-09-29T03:21:19.891Z,15.80
2017-09-29T03:22:22.615Z,15.80
2017-09-29T03:23:25.097Z,15.80
2017-09-29T03:24:28.552Z,15.80
2017-09-29T03:25:31.052Z,15.80
2017-09-29T03:26:34.509Z,15.80
2017-09-29T03:27:37.050Z,15.80
2017-09-29T03:28:39.616Z,15.80
2017-09-29T03:29:42.220Z,15.80
2017-09-29T03:30:44.944Z,15.80
2017-09-29T03:31:47.509Z,15.80
2017-09-29T03:32:50.282Z,15.80
2017-09-29T03:33:52.849Z,15.80
2017-09-29T03:34:55.825Z,15.70
2017-09-29T03:35:58.394Z,15.70
2017-09-29T03:37:00.962Z,15.70
2017-09-29T03:38:04.032Z,15.70
2017-09-29T03:39:07.422Z,15.70
2017-09-29T03:40:09.929Z,15.70
2017-09-29T03:41:12.513Z,15.70
2017-09-29T03:42:14.991Z,15.70
2017-09-29T03:43:17.547Z,15.70
2017-09-29T03:44:20.185Z,15.70
2017-09-29T03:45:22.936Z,15.70
2017-09-29T03:46:26.498Z,15.70
2017-09-29T03:47:29.992Z,15.70
2017-09-29T03:48:33.394Z,15.70
2017-09-29T03:49:35.972Z,15.70
2017-09-29T03:50:40.324Z,15.70
2017-09-29T03:51:45.552Z,15.80
2017-09-29T03:52:50.310Z,15.70
2017-09-29T03:53:55.771Z,15.70
2017-09-29T03:55:00.841Z,15.80
2017-09-29T03:56:05.000Z,15.80
2017-09-29T03:57:08.921Z,15.70
2017-09-29T03:58:13.434Z,15.70
2017-09-29T03:59:17.895Z,15.70
2017-09-29T04:00:23.283Z,15.70
2017-09-29T04:01:25.805Z,15.70
2017-09-29T04:02:30.319Z,15.80
2017-09-29T04:03:32.844Z,15.80
2017-09-29T04:04:35.541Z,15.80
2017-09-29T04:05:39.518Z,15.80
2017-09-29T04:06:42.073Z,15.80
2017-09-29T04:07:44.555Z,15.80
2017-09-29T04:08:48.007Z,15.80
2017-09-29T04:09:50.537Z,15.80
2017-09-29T04:10:53.068Z,15.90
2017-09-29T04:11:55.548Z,15.90
2017-09-29T04:12:59.012Z,15.90
2017-09-29T04:14:01.523Z,15.80
2017-09-29T04:15:04.088Z,15.90
2017-09-29T04:16:06.763Z,15.90
2017-09-29T04:17:09.432Z,15.90
2017-09-29T04:18:12.002Z,15.90
2017-09-29T04:19:14.709Z,15.90
2017-09-29T04:20:17.181Z,15.90
2017-09-29T04:21:19.777Z,15.90
2017-09-29T04:22:23.989Z,15.90
2017-09-29T04:23:27.611Z,15.90
2017-09-29T04:24:30.127Z,15.90
2017-09-29T04:25:32.942Z,15.90
2017-09-29T04:26:35.458Z,15.90
2017-09-29T04:27:38.219Z,15.90
2017-09-29T04:28:40.706Z,15.90
2017-09-29T04:29:43.250Z,15.90
2017-09-29T04:30:45.746Z,15.90
2017-09-29T04:31:49.226Z,15.90
2017-09-29T04:32:51.707Z,15.90
2017-09-29T04:33:55.162Z,15.90
2017-09-29T04:34:57.659Z,15.90
2017-09-29T04:36:03.100Z,15.90
2017-09-29T04:37:06.504Z,15.90
2017-09-29T04:38:10.195Z,15.90
2017-09-29T04:39:12.731Z,15.90
2017-09-29T04:40:15.472Z,15.90
2017-09-29T04:41:18.000Z,15.90
2017-09-29T04:42:20.536Z,15.90
2017-09-29T04:43:24.139Z,16.00
2017-09-29T04:44:27.946Z,15.90
2017-09-29T04:45:30.519Z,15.90
2017-09-29T04:46:33.018Z,16.00
2017-09-29T04:47:35.656Z,15.90
2017-09-29T04:48:38.424Z,15.90
2017-09-29T04:49:40.992Z,15.90
2017-09-29T04:50:43.744Z,15.90
2017-09-29T04:51:47.025Z,15.90
2017-09-29T04:52:50.581Z,15.90
2017-09-29T04:53:53.059Z,15.90
2017-09-29T04:54:55.598Z,15.90
2017-09-29T04:55:58.104Z,15.80
2017-09-29T04:57:00.666Z,15.90
2017-09-29T04:58:03.141Z,15.90
2017-09-29T04:59:06.638Z,15.80
2017-09-29T05:00:09.940Z,15.90
2017-09-29T05:01:12.543Z,15.80
2017-09-29T05:02:15.075Z,15.90
2017-09-29T05:03:17.627Z,15.90
2017-09-29T05:04:20.926Z,15.90
2017-09-29T05:05:23.851Z,15.80
2017-09-29T05:06:26.478Z,15.80
2017-09-29T05:07:29.226Z,15.80
2017-09-29T05:08:32.531Z,15.80
2017-09-29T05:09:35.155Z,15.80
2017-09-29T05:10:38.431Z,15.90
2017-09-29T05:11:42.122Z,15.90
2017-09-29T05:12:44.643Z,15.90
2017-09-29T05:13:47.365Z,15.90
2017-09-29T05:14:49.855Z,15.90
2017-09-29T05:15:54.027Z,15.90
2017-09-29T05:16:56.525Z,15.90
2017-09-29T05:17:59.288Z,15.90
2017-09-29T05:19:02.549Z,15.90
2017-09-29T05:20:05.239Z,15.90
2017-09-29T05:21:08.663Z,15.90
2017-09-29T05:22:11.525Z,15.90
2017-09-29T05:23:14.026Z,15.90
2017-09-29T05:24:16.815Z,15.90
2017-09-29T05:25:19.364Z,15.90
2017-09-29T05:26:22.150Z,15.90
2017-09-29T05:27:24.697Z,15.90
2017-09-29T05:28:27.485Z,15.80
2017-09-29T05:29:30.007Z,15.80
2017-09-29T05:30:32.672Z,15.80
2017-09-29T05:31:35.203Z,15.80
2017-09-29T05:32:37.871Z,15.80
2017-09-29T05:33:40.381Z,15.80
2017-09-29T05:34:42.888Z,15.80
2017-09-29T05:35:45.422Z,15.80
2017-09-29T05:36:49.141Z,15.80
2017-09-29T05:37:51.630Z,15.90
2017-09-29T05:38:54.171Z,15.90
2017-09-29T05:39:56.685Z,15.90
2017-09-29T05:41:00.197Z,15.90
2017-09-29T05:42:02.708Z,15.90
2017-09-29T05:43:07.304Z,16.00
2017-09-29T05:44:09.809Z,16.00
2017-09-29T05:45:12.288Z,16.00
2017-09-29T05:46:15.690Z,16.00
2017-09-29T05:47:18.308Z,16.00
2017-09-29T05:48:20.816Z,16.00
2017-09-29T05:49:23.393Z,16.00
2017-09-29T05:50:25.993Z,16.00
2017-09-29T05:51:30.258Z,16.00
2017-09-29T05:52:32.936Z,16.00
2017-09-29T05:53:35.539Z,16.00
2017-09-29T05:54:38.177Z,16.00
2017-09-29T05:55:45.226Z,16.00
2017-09-29T05:56:48.502Z,16.10
2017-09-29T05:57:53.032Z,16.10
2017-09-29T05:58:57.186Z,16.10
2017-09-29T05:59:59.862Z,16.00
2017-09-29T06:01:02.482Z,16.10
2017-09-29T06:02:05.236Z,16.00
2017-09-29T06:03:08.545Z,16.10
2017-09-29T06:04:11.160Z,16.00
2017-09-29T06:05:15.163Z,16.10
2017-09-29T06:06:17.707Z,16.10
2017-09-29T06:07:20.481Z,16.10
2017-09-29T06:08:23.221Z,16.20
2017-09-29T06:09:26.816Z,16.20
2017-09-29T06:10:29.712Z,16.10
2017-09-29T06:11:32.186Z,16.20
2017-09-29T06:12:34.959Z,16.30
2017-09-29T06:13:37.491Z,16.30
2017-09-29T06:14:40.056Z,16.30
2017-09-29T06:15:42.559Z,16.40
2017-09-29T06:16:45.427Z,16.40
2017-09-29T06:17:47.919Z,16.40
2017-09-29T06:18:50.686Z,16.40
2017-09-29T06:19:53.207Z,16.40
2017-09-29T06:20:58.409Z,16.50
2017-09-29T06:22:01.770Z,16.50
2017-09-29T06:23:04.417Z,16.50
2017-09-29T06:24:07.106Z,16.50
2017-09-29T06:25:09.780Z,16.50
2017-09-29T06:26:12.405Z,16.50
2017-09-29T06:27:17.654Z,16.50
2017-09-29T06:28:20.447Z,16.60
2017-09-29T06:29:23.266Z,16.70
2017-09-29T06:30:26.666Z,16.70
2017-09-29T06:31:29.555Z,16.70
2017-09-29T06:32:34.410Z,16.80
2017-09-29T06:33:41.468Z,16.80
2017-09-29T06:34:43.974Z,16.90
2017-09-29T06:35:46.567Z,17.00
2017-09-29T06:36:49.624Z,17.00
2017-09-29T06:37:52.204Z,17.00
2017-09-29T06:38:55.605Z,17.00
2017-09-29T06:39:58.163Z,16.90
2017-09-29T06:41:01.447Z,16.90
2017-09-29T06:42:04.835Z,16.90
2017-09-29T06:43:07.385Z,16.90
2017-09-29T06:44:10.812Z,17.00
2017-09-29T06:45:14.090Z,17.10
2017-09-29T06:46:16.691Z,17.00
2017-09-29T06:47:19.186Z,17.10
2017-09-29T06:48:21.693Z,17.10
2017-09-29T06:49:25.336Z,17.10
2017-09-29T06:50:30.261Z,17.20
2017-09-29T06:51:32.862Z,17.20
2017-09-29T06:52:35.879Z,17.30
2017-09-29T06:53:39.291Z,17.30
2017-09-29T06:54:42.065Z,17.20
2017-09-29T06:55:44.551Z,17.30
2017-09-29T06:56:47.118Z,17.30
2017-09-29T06:57:49.894Z,17.20
2017-09-29T06:58:52.406Z,17.20
2017-09-29T06:59:55.972Z,17.30
2017-09-29T07:00:58.492Z,17.30
2017-09-29T07:02:05.336Z,17.40
2017-09-29T07:03:08.607Z,17.50
2017-09-29T07:04:16.476Z,17.50
2017-09-29T07:05:18.979Z,17.50
2017-09-29T07:06:24.539Z,17.60
2017-09-29T07:07:27.058Z,17.60
2017-09-29T07:08:31.252Z,17.60
2017-09-29T07:09:33.775Z,17.70
2017-09-29T07:10:36.515Z,17.70
2017-09-29T07:11:39.772Z,17.90
2017-09-29T07:12:43.416Z,17.90
2017-09-29T07:13:45.890Z,18.00
2017-09-29T07:14:48.502Z,18.00
2017-09-29T07:15:50.997Z,18.10
2017-09-29T07:16:54.398Z,18.00
2017-09-29T07:17:57.068Z,18.00
2017-09-29T07:18:59.703Z,18.00
2017-09-29T07:20:02.217Z,17.90
2017-09-29T07:21:04.727Z,17.90
2017-09-29T07:22:07.248Z,17.80
2017-09-29T07:23:09.737Z,17.90
2017-09-29T07:24:12.443Z,17.90
2017-09-29T07:25:17.300Z,17.70
2017-09-29T07:26:21.274Z,17.70
2017-09-29T07:27:26.635Z,17.70
2017-09-29T07:28:30.308Z,17.70
2017-09-29T07:29:36.451Z,17.70
2017-09-29T07:30:41.605Z,17.70
2017-09-29T07:31:46.537Z,17.60
2017-09-29T07:32:49.314Z,17.70
2017-09-29T07:33:51.810Z,17.70
2017-09-29T07:34:54.302Z,17.60
2017-09-29T07:35:57.778Z,17.60
2017-09-29T07:37:00.309Z,17.60
2017-09-29T07:38:03.111Z,17.70
2017-09-29T07:39:05.618Z,17.70
2017-09-29T07:40:08.118Z,17.80
2017-09-29T07:41:10.619Z,17.80
2017-09-29T07:42:14.136Z,17.80
2017-09-29T07:43:16.739Z,17.80
2017-09-29T07:44:20.601Z,17.80
2017-09-29T07:45:23.171Z,17.90
2017-09-29T07:46:25.698Z,17.90
2017-09-29T07:47:28.237Z,17.80
2017-09-29T07:48:31.082Z,17.80
2017-09-29T07:49:33.641Z,17.80
2017-09-29T07:50:36.372Z,17.70
2017-09-29T07:51:38.865Z,17.70
2017-09-29T07:52:41.411Z,17.70
2017-09-29T07:53:44.015Z,17.80
2017-09-29T07:54:46.783Z,17.80
2017-09-29T07:55:49.327Z,17.90
2017-09-29T07:56:52.120Z,17.90
2017-09-29T07:57:54.608Z,17.90
2017-09-29T07:58:57.457Z,17.90
2017-09-29T08:00:00.136Z,18.00
2017-09-29T08:01:02.760Z,18.10
2017-09-29T08:02:06.087Z,18.10
2017-09-29T08:03:09.716Z,18.20
2017-09-29T08:04:13.824Z,18.20
2017-09-29T08:05:16.552Z,18.10
2017-09-29T08:06:19.044Z,18.30
2017-09-29T08:07:21.895Z,18.30
2017-09-29T08:08:24.396Z,18.30
2017-09-29T08:09:27.198Z,18.40
2017-09-29T08:10:30.468Z,18.40
2017-09-29T08:11:35.029Z,18.40
2017-09-29T08:12:37.705Z,18.40
2017-09-29T08:13:40.336Z,18.40
2017-09-29T08:14:43.623Z,18.50
2017-09-29T08:15:47.274Z,18.50
2017-09-29T08:16:49.910Z,18.50
2017-09-29T08:17:52.679Z,18.60
2017-09-29T08:18:55.186Z,18.70
2017-09-29T08:19:57.887Z,18.70
2017-09-29T08:21:01.152Z,18.70
2017-09-29T08:22:03.834Z,18.70
2017-09-29T08:23:07.625Z,18.80
2017-09-29T08:24:10.425Z,18.80
2017-09-29T08:25:13.819Z,18.90
2017-09-29T08:26:17.615Z,18.90
2017-09-29T08:27:20.311Z,19.00
2017-09-29T08:28:22.972Z,19.10
2017-09-29T08:29:25.454Z,19.10
2017-09-29T08:30:28.272Z,19.10
2017-09-29T08:31:31.552Z,19.10
2017-09-29T08:32:35.128Z,19.10
2017-09-29T08:33:37.734Z,19.10
2017-09-29T08:34:40.509Z,19.30
2017-09-29T08:35:43.173Z,19.30
2017-09-29T08:36:46.752Z,19.60
2017-09-29T08:37:49.278Z,19.60
2017-09-29T08:38:52.059Z,19.60
2017-09-29T08:39:54.671Z,19.90
2017-09-29T08:40:57.407Z,20.10
2017-09-29T08:42:02.023Z,20.30
2017-09-29T08:43:05.653Z,20.30
2017-09-29T08:44:08.153Z,20.30
2017-09-29T08:45:10.885Z,20.40
2017-09-29T08:46:13.396Z,20.60
2017-09-29T08:47:16.317Z,20.80
2017-09-29T08:48:18.859Z,20.90
2017-09-29T08:49:22.308Z,21.30
2017-09-29T08:50:24.809Z,21.30
2017-09-29T08:51:28.191Z,21.30
2017-09-29T08:52:30.734Z,21.30
2017-09-29T08:53:33.467Z,21.40
2017-09-29T08:54:36.003Z,21.40
2017-09-29T08:55:39.418Z,21.40
2017-09-29T08:56:41.925Z,21.40
2017-09-29T08:57:44.717Z,21.60
2017-09-29T08:58:47.342Z,21.40
2017-09-29T08:59:50.053Z,21.50
2017-09-29T09:00:52.539Z,21.50
2017-09-29T09:01:56.007Z,21.60
2017-09-29T09:02:58.514Z,21.60
2017-09-29T09:04:02.298Z,21.60
2017-09-29T09:05:05.753Z,21.40
2017-09-29T09:06:08.572Z,21.40
2017-09-29T09:07:11.217Z,21.40
2017-09-29T09:08:14.660Z,21.60
2017-09-29T09:09:17.179Z,21.50
2017-09-29T09:10:20.781Z,21.30
2017-09-29T09:11:23.316Z,21.30
2017-09-29T09:12:26.126Z,21.40
2017-09-29T09:13:28.663Z,21.40
2017-09-29T09:14:31.434Z,21.40
2017-09-29T09:15:34.719Z,21.30
2017-09-29T09:16:37.993Z,21.20
2017-09-29T09:17:40.485Z,21.20
2017-09-29T09:18:43.220Z,21.10
2017-09-29T09:19:45.806Z,21.40
2017-09-29T09:20:49.263Z,21.40
2017-09-29T09:21:51.782Z,21.30
2017-09-29T09:22:54.305Z,21.60
2017-09-29T09:23:56.815Z,21.60
2017-09-29T09:24:59.324Z,21.80
2017-09-29T09:26:01.872Z,22.00
2017-09-29T09:27:04.383Z,22.10
2017-09-29T09:28:07.705Z,22.40
2017-09-29T09:29:10.411Z,22.40
2017-09-29T09:30:12.937Z,22.70
2017-09-29T09:31:15.711Z,22.20
2017-09-29T09:32:18.240Z,22.40
2017-09-29T09:33:21.018Z,22.30
2017-09-29T09:34:24.300Z,22.30
2017-09-29T09:35:26.951Z,22.30
2017-09-29T09:36:29.569Z,22.40
2017-09-29T09:37:33.337Z,22.40
2017-09-29T09:38:36.757Z,22.40
2017-09-29T09:39:39.629Z,22.40
2017-09-29T09:40:42.195Z,22.40
2017-09-29T09:41:44.851Z,22.50
2017-09-29T09:42:47.391Z,22.50
2017-09-29T09:43:50.648Z,22.60
2017-09-29T09:44:53.212Z,22.40
2017-09-29T09:45:55.783Z,22.20
2017-09-29T09:46:58.278Z,22.30
2017-09-29T09:48:01.861Z,22.60
2017-09-29T09:49:04.398Z,22.60
2017-09-29T09:50:07.140Z,22.80
2017-09-29T09:51:09.657Z,22.70
2017-09-29T09:52:12.441Z,22.70
2017-09-29T09:53:15.046Z,22.70
2017-09-29T09:54:18.869Z,22.80
2017-09-29T09:55:21.416Z,23.00
2017-09-29T09:56:29.313Z,23.00
2017-09-29T09:57:33.075Z,22.90
2017-09-29T09:58:38.924Z,23.00
2017-09-29T09:59:41.734Z,23.00
2017-09-29T10:00:44.391Z,23.20
2017-09-29T10:01:46.991Z,23.40
2017-09-29T10:02:49.506Z,22.90
2017-09-29T10:03:52.849Z,23.00
2017-09-29T10:04:55.429Z,23.00
2017-09-29T10:05:58.247Z,23.20
2017-09-29T10:07:00.758Z,23.40
2017-09-29T10:08:03.527Z,23.60
2017-09-29T10:09:06.052Z,23.90
2017-09-29T10:10:08.555Z,23.80
2017-09-29T10:11:11.082Z,23.60
2017-09-29T10:12:13.757Z,23.50
2017-09-29T10:13:16.272Z,23.60
2017-09-29T10:14:19.375Z,23.30
2017-09-29T10:15:22.702Z,23.20
2017-09-29T10:16:35.324Z,23.10
2017-09-29T10:17:37.853Z,23.10
2017-09-29T10:18:40.398Z,23.20
2017-09-29T10:19:43.706Z,23.30
2017-09-29T10:20:47.269Z,23.20
2017-09-29T10:21:50.683Z,23.10
2017-09-29T10:22:53.190Z,23.10
2017-09-29T10:23:56.518Z,23.20
2017-09-29T10:24:59.818Z,23.20
2017-09-29T10:26:02.306Z,23.20
2017-09-29T10:27:05.208Z,23.30
2017-09-29T10:28:07.829Z,23.60
2017-09-29T10:29:10.459Z,24.10
2017-09-29T10:30:13.714Z,24.40
2017-09-29T10:31:16.417Z,24.40
2017-09-29T10:32:19.012Z,24.70
2017-09-29T10:33:21.785Z,24.80
2017-09-29T10:34:24.275Z,24.60
2017-09-29T10:35:27.328Z,24.40
2017-09-29T10:36:29.838Z,24.30
2017-09-29T10:37:32.430Z,23.90
2017-09-29T10:38:35.745Z,24.00
2017-09-29T10:39:38.374Z,24.00
2017-09-29T10:40:40.869Z,24.10
2017-09-29T10:41:43.384Z,24.10
2017-09-29T10:42:45.928Z,24.00
2017-09-29T10:43:48.438Z,23.90
2017-09-29T10:44:51.777Z,23.70
2017-09-29T10:45:54.404Z,23.70
2017-09-29T10:46:56.932Z,23.70
2017-09-29T10:48:00.284Z,23.60
2017-09-29T10:49:03.155Z,23.40
2017-09-29T10:50:05.688Z,23.20
2017-09-29T10:51:08.396Z,23.20
2017-09-29T10:52:11.172Z,22.70
2017-09-29T10:53:13.735Z,22.70
2017-09-29T10:54:16.378Z,22.70
2017-09-29T10:55:19.639Z,22.70
2017-09-29T10:56:22.285Z,22.60
2017-09-29T10:57:24.779Z,22.50
2017-09-29T10:58:27.326Z,22.60
2017-09-29T10:59:29.835Z,22.50
2017-09-29T11:00:33.478Z,22.70
2017-09-29T11:01:36.022Z,22.70
2017-09-29T11:02:38.681Z,22.80
2017-09-29T11:03:41.189Z,22.70
2017-09-29T11:04:43.966Z,22.70
2017-09-29T11:05:46.481Z,22.70
2017-09-29T11:06:50.283Z,22.70
2017-09-29T11:07:52.796Z,22.70
2017-09-29T11:08:56.031Z,22.80
2017-09-29T11:09:58.545Z,22.80
2017-09-29T11:11:01.248Z,22.90
2017-09-29T11:12:04.502Z,22.80
2017-09-29T11:13:07.264Z,22.80
2017-09-29T11:14:09.760Z,22.90
2017-09-29T11:15:13.176Z,23.30
2017-09-29T11:16:15.743Z,23.30
2017-09-29T11:17:18.450Z,23.40
2017-09-29T11:18:21.752Z,23.60
2017-09-29T11:19:25.024Z,23.70
2017-09-29T11:20:28.335Z,23.60
2017-09-29T11:21:33.794Z,23.50
2017-09-29T11:22:37.079Z,23.50
2017-09-29T11:23:40.363Z,23.40
2017-09-29T11:24:42.887Z,23.40
2017-09-29T11:25:46.546Z,23.40
2017-09-29T11:26:49.089Z,23.30
2017-09-29T11:27:51.607Z,23.30
2017-09-29T11:28:54.090Z,23.10
2017-09-29T11:29:57.609Z,22.90
2017-09-29T11:31:00.096Z,22.90
2017-09-29T11:32:02.622Z,22.80
2017-09-29T11:33:05.207Z,22.70
2017-09-29T11:34:08.009Z,22.60
2017-09-29T11:35:10.495Z,22.60
2017-09-29T11:36:13.313Z,22.50
2017-09-29T11:37:15.829Z,22.40
2017-09-29T11:38:18.605Z,22.40
2017-09-29T11:39:21.154Z,22.30
2017-09-29T11:40:23.958Z,22.20
2017-09-29T11:41:27.708Z,22.10
2017-09-29T11:42:31.557Z,22.10
2017-09-29T11:43:34.156Z,22.00
2017-09-29T11:44:37.178Z,22.10
2017-09-29T11:45:40.541Z,21.90
2017-09-29T11:46:43.051Z,21.90
2017-09-29T11:47:45.544Z,21.70
2017-09-29T11:48:48.259Z,21.80
2017-09-29T11:49:50.804Z,21.90
2017-09-29T11:50:53.460Z,22.00
2017-09-29T11:51:55.961Z,22.00
2017-09-29T11:53:00.323Z,22.00
2017-09-29T11:54:03.247Z,22.00
2017-09-29T11:55:05.992Z,22.10
2017-09-29T11:56:09.312Z,22.00
2017-09-29T11:57:13.391Z,22.00
2017-09-29T11:58:15.915Z,22.20
2017-09-29T11:59:18.508Z,22.10
2017-09-29T12:00:21.178Z,22.10
2017-09-29T12:01:26.196Z,22.10
2017-09-29T12:02:28.717Z,22.10
2017-09-29T12:03:31.339Z,22.10
2017-09-29T12:04:34.160Z,22.20
2017-09-29T12:05:37.027Z,22.30
2017-09-29T12:06:39.706Z,22.40
2017-09-29T12:07:42.896Z,22.50
2017-09-29T12:11:56.476Z,23.30
2017-09-29T12:12:59.040Z,23.30
2017-09-29T12:14:01.648Z,23.40
2017-09-29T12:15:04.949Z,23.60
2017-09-29T12:16:07.458Z,23.60
2017-09-29T12:17:10.099Z,23.80
2017-09-29T12:18:12.663Z,23.70
2017-09-29T12:19:15.325Z,23.70
2017-09-29T12:20:17.848Z,23.60
2017-09-29T12:21:20.734Z,23.70
2017-09-29T12:22:23.244Z,23.60
2017-09-29T12:23:26.051Z,23.70
2017-09-29T12:24:28.569Z,23.80
2017-09-29T12:25:31.290Z,23.70
2017-09-29T12:26:33.810Z,23.80
2017-09-29T12:27:36.391Z,23.80
2017-09-29T12:28:39.599Z,23.70
2017-09-29T12:29:42.281Z,23.70
2017-09-29T12:30:45.546Z,24.00
2017-09-29T12:31:48.329Z,24.00
2017-09-29T12:32:50.852Z,24.10
2017-09-29T12:33:53.466Z,24.10
2017-09-29T12:34:56.001Z,24.40
2017-09-29T12:35:58.705Z,24.40
2017-09-29T12:37:01.252Z,24.40
2017-09-29T12:38:04.185Z,24.30
2017-09-29T12:39:06.775Z,24.50
2017-09-29T12:40:09.300Z,24.60
2017-09-29T12:41:12.598Z,24.70
2017-09-29T12:42:15.963Z,24.80
2017-09-29T12:43:18.579Z,24.80
2017-09-29T12:44:21.193Z,24.40
2017-09-29T12:45:24.467Z,24.30
2017-09-29T12:46:27.175Z,24.30
2017-09-29T12:47:30.422Z,24.10
2017-09-29T12:48:33.664Z,24.10
2017-09-29T12:49:36.403Z,24.10
2017-09-29T12:50:39.088Z,24.10
2017-09-29T12:51:42.345Z,23.90
2017-09-29T12:52:45.010Z,23.90
2017-09-29T12:53:47.510Z,24.00
2017-09-29T12:54:51.275Z,24.00
2017-09-29T12:55:53.767Z,23.90
2017-09-29T12:56:56.280Z,24.00
2017-09-29T12:57:58.814Z,23.90
2017-09-29T12:59:01.323Z,24.10
2017-09-29T13:00:03.856Z,24.00
2017-09-29T13:01:06.374Z,24.00
2017-09-29T13:02:09.030Z,23.90
2017-09-29T13:03:11.548Z,23.90
2017-09-29T13:04:14.042Z,23.70
2017-09-29T13:05:16.555Z,23.60
2017-09-29T13:06:19.145Z,23.60
2017-09-29T13:07:21.790Z,23.60
2017-09-29T13:08:25.411Z,23.30
2017-09-29T13:09:27.872Z,23.30
2017-09-29T13:10:30.883Z,23.30
2017-09-29T13:11:33.518Z,23.20
2017-09-29T13:12:36.127Z,23.20
2017-09-29T13:13:38.631Z,23.10
2017-09-29T13:14:42.211Z,23.10
2017-09-29T13:15:45.496Z,23.00
2017-09-29T13:16:49.830Z,23.00
2017-09-29T13:17:52.336Z,23.00
2017-09-29T13:18:54.830Z,23.10
2017-09-29T13:19:57.326Z,23.10
2017-09-29T13:20:59.837Z,23.00
2017-09-29T13:22:02.457Z,22.80
2017-09-29T13:23:09.743Z,22.80
2017-09-29T13:24:12.439Z,22.80
2017-09-29T13:25:20.824Z,22.90
2017-09-29T13:26:23.348Z,23.00
2017-09-29T13:27:26.040Z,23.00
2017-09-29T13:28:29.306Z,23.00
2017-09-29T13:29:32.069Z,23.10
2017-09-29T13:30:34.683Z,23.10
2017-09-29T13:31:37.417Z,22.90
2017-09-29T13:32:40.864Z,22.90
2017-09-29T13:33:44.686Z,22.90
2017-09-29T13:34:47.175Z,22.90